sensor_id;sensor_type;location;lat;lon;timestamp;temperature;humidity
6865;DHT22;3471;49.678;8.388;2022-07-05T00:00:04;21.10;98.30
6865;DHT22;3471;49.678;8.388;2022-07-05T00:02:30;21.20;99.00
6865;DHT22;3471;49.678;8.388;2022-07-05T00:04:56;21.10;99.00
6865;DHT22;3471;49.678;8.388;2022-07-05T00:07:21;21.10;98.40
6865;DHT22;3471;49.678;8.388;2022-07-05T00:09:57;21.10;99.00
6865;DHT22;3471;49.678;8.388;2022-07-05T00:12:27;21.10;99.20
6865;DHT22;3471;49.678;8.388;2022-07-05T00:14:53;21.10;98.80
6865;DHT22;3471;49.678;8.388;2022-07-05T00:17:19;21.10;99.50
6865;DHT22;3471;49.678;8.388;2022-07-05T00:19:45;20.90;99.90
6865;DHT22;3471;49.678;8.388;2022-07-05T00:22:11;20.80;99.90
6865;DHT22;3471;49.678;8.388;2022-07-05T00:24:36;20.80;99.70
6865;DHT22;3471;49.678;8.388;2022-07-05T00:27:02;20.70;99.90
6865;DHT22;3471;49.678;8.388;2022-07-05T00:29:28;20.70;99.90
6865;DHT22;3471;49.678;8.388;2022-07-05T00:31:53;20.60;99.90
6865;DHT22;3471;49.678;8.388;2022-07-05T00:34:19;20.60;99.90
6865;DHT22;3471;49.678;8.388;2022-07-05T00:36:45;20.60;99.90
6865;DHT22;3471;49.678;8.388;2022-07-05T00:39:11;20.50;99.90
6865;DHT22;3471;49.678;8.388;2022-07-05T00:41:37;20.50;99.90
6865;DHT22;3471;49.678;8.388;2022-07-05T00:44:07;20.40;99.30
6865;DHT22;3471;49.678;8.388;2022-07-05T00:46:34;20.40;99.90
6865;DHT22;3471;49.678;8.388;2022-07-05T00:49:01;20.40;99.90
6865;DHT22;3471;49.678;8.388;2022-07-05T00:51:30;20.40;99.90
6865;DHT22;3471;49.678;8.388;2022-07-05T00:53:56;20.40;99.90
6865;DHT22;3471;49.678;8.388;2022-07-05T00:56:23;20.30;99.60
6865;DHT22;3471;49.678;8.388;2022-07-05T00:58:49;20.30;99.90
6865;DHT22;3471;49.678;8.388;2022-07-05T01:01:15;20.30;99.90
6865;DHT22;3471;49.678;8.388;2022-07-05T01:03:41;20.20;99.40
6865;DHT22;3471;49.678;8.388;2022-07-05T01:06:09;20.20;98.80
6865;DHT22;3471;49.678;8.388;2022-07-05T01:08:39;20.10;98.80
6865;DHT22;3471;49.678;8.388;2022-07-05T01:11:06;20.10;99.90
6865;DHT22;3471;49.678;8.388;2022-07-05T01:13:31;20.00;99.90
6865;DHT22;3471;49.678;8.388;2022-07-05T01:15:58;20.00;99.90
6865;DHT22;3471;49.678;8.388;2022-07-05T01:18:24;19.90;99.90
6865;DHT22;3471;49.678;8.388;2022-07-05T01:20:51;19.90;99.90
6865;DHT22;3471;49.678;8.388;2022-07-05T01:23:20;19.90;99.90
6865;DHT22;3471;49.678;8.388;2022-07-05T01:25:47;19.90;99.90
6865;DHT22;3471;49.678;8.388;2022-07-05T01:28:13;19.90;99.90
6865;DHT22;3471;49.678;8.388;2022-07-05T01:30:40;19.90;99.90
6865;DHT22;3471;49.678;8.388;2022-07-05T01:33:07;19.90;99.90
6865;DHT22;3471;49.678;8.388;2022-07-05T01:35:33;19.80;99.90
6865;DHT22;3471;49.678;8.388;2022-07-05T01:37:59;19.80;99.90
6865;DHT22;3471;49.678;8.388;2022-07-05T01:40:25;19.80;99.90
6865;DHT22;3471;49.678;8.388;2022-07-05T01:42:51;19.80;99.90
6865;DHT22;3471;49.678;8.388;2022-07-05T01:45:17;19.80;99.90
6865;DHT22;3471;49.678;8.388;2022-07-05T01:48:04;19.80;99.90
6865;DHT22;3471;49.678;8.388;2022-07-05T01:50:33;19.70;99.90
6865;DHT22;3471;49.678;8.388;2022-07-05T01:53:01;19.70;99.90
6865;DHT22;3471;49.678;8.388;2022-07-05T01:55:28;19.70;99.90
6865;DHT22;3471;49.678;8.388;2022-07-05T01:57:54;19.70;99.90
6865;DHT22;3471;49.678;8.388;2022-07-05T02:00:20;19.60;99.90
6865;DHT22;3471;49.678;8.388;2022-07-05T02:02:46;19.60;99.90
6865;DHT22;3471;49.678;8.388;2022-07-05T02:05:13;19.60;99.90
6865;DHT22;3471;49.678;8.388;2022-07-05T02:07:48;19.60;99.90
6865;DHT22;3471;49.678;8.388;2022-07-05T02:10:14;19.50;99.90
6865;DHT22;3471;49.678;8.388;2022-07-05T02:12:40;19.50;99.90
6865;DHT22;3471;49.678;8.388;2022-07-05T02:15:06;19.50;99.90
6865;DHT22;3471;49.678;8.388;2022-07-05T02:17:31;19.50;99.90
6865;DHT22;3471;49.678;8.388;2022-07-05T02:19:57;19.40;99.90
6865;DHT22;3471;49.678;8.388;2022-07-05T02:22:23;19.40;99.90
6865;DHT22;3471;49.678;8.388;2022-07-05T02:24:49;19.50;99.90
6865;DHT22;3471;49.678;8.388;2022-07-05T02:27:15;19.50;99.90
6865;DHT22;3471;49.678;8.388;2022-07-05T02:29:41;19.50;99.90
6865;DHT22;3471;49.678;8.388;2022-07-05T02:32:06;19.50;99.90
6865;DHT22;3471;49.678;8.388;2022-07-05T02:34:32;19.50;99.90
6865;DHT22;3471;49.678;8.388;2022-07-05T02:36:58;19.50;99.90
6865;DHT22;3471;49.678;8.388;2022-07-05T02:39:23;19.50;99.90
6865;DHT22;3471;49.678;8.388;2022-07-05T02:41:49;19.50;99.90
6865;DHT22;3471;49.678;8.388;2022-07-05T02:44:14;19.50;99.90
6865;DHT22;3471;49.678;8.388;2022-07-05T02:46:40;19.50;99.90
6865;DHT22;3471;49.678;8.388;2022-07-05T02:49:06;19.40;99.90
6865;DHT22;3471;49.678;8.388;2022-07-05T02:51:31;19.40;99.90
6865;DHT22;3471;49.678;8.388;2022-07-05T02:53:57;19.40;99.90
6865;DHT22;3471;49.678;8.388;2022-07-05T02:56:23;19.40;99.90
6865;DHT22;3471;49.678;8.388;2022-07-05T02:58:48;19.40;99.90
6865;DHT22;3471;49.678;8.388;2022-07-05T03:01:14;19.40;99.90
6865;DHT22;3471;49.678;8.388;2022-07-05T03:03:39;19.40;99.90
6865;DHT22;3471;49.678;8.388;2022-07-05T03:06:05;19.40;99.90
6865;DHT22;3471;49.678;8.388;2022-07-05T03:08:31;19.40;99.90
6865;DHT22;3471;49.678;8.388;2022-07-05T03:10:56;19.40;99.90
6865;DHT22;3471;49.678;8.388;2022-07-05T03:13:22;19.30;99.90
6865;DHT22;3471;49.678;8.388;2022-07-05T03:15:47;19.30;99.90
6865;DHT22;3471;49.678;8.388;2022-07-05T03:18:13;19.20;99.90
6865;DHT22;3471;49.678;8.388;2022-07-05T03:20:38;19.30;99.90
6865;DHT22;3471;49.678;8.388;2022-07-05T03:23:04;19.30;99.90
6865;DHT22;3471;49.678;8.388;2022-07-05T03:25:30;19.30;99.90
6865;DHT22;3471;49.678;8.388;2022-07-05T03:27:55;19.30;99.90
6865;DHT22;3471;49.678;8.388;2022-07-05T03:30:21;19.30;99.90
6865;DHT22;3471;49.678;8.388;2022-07-05T03:32:48;19.30;99.90
6865;DHT22;3471;49.678;8.388;2022-07-05T03:35:14;19.30;99.90
6865;DHT22;3471;49.678;8.388;2022-07-05T03:37:39;19.20;99.90
6865;DHT22;3471;49.678;8.388;2022-07-05T03:40:05;19.20;99.90
6865;DHT22;3471;49.678;8.388;2022-07-05T03:42:31;19.20;99.90
6865;DHT22;3471;49.678;8.388;2022-07-05T03:44:57;19.20;99.90
6865;DHT22;3471;49.678;8.388;2022-07-05T03:47:23;19.20;99.90
6865;DHT22;3471;49.678;8.388;2022-07-05T03:49:48;19.20;99.90
6865;DHT22;3471;49.678;8.388;2022-07-05T03:52:17;19.20;99.90
6865;DHT22;3471;49.678;8.388;2022-07-05T03:54:43;19.20;99.90
6865;DHT22;3471;49.678;8.388;2022-07-05T03:57:10;19.20;99.90
6865;DHT22;3471;49.678;8.388;2022-07-05T03:59:36;19.20;99.90
6865;DHT22;3471;49.678;8.388;2022-07-05T04:02:02;19.30;99.90
6865;DHT22;3471;49.678;8.388;2022-07-05T04:04:28;19.30;99.90
6865;DHT22;3471;49.678;8.388;2022-07-05T04:06:53;19.30;99.90
6865;DHT22;3471;49.678;8.388;2022-07-05T04:09:19;19.30;99.90
6865;DHT22;3471;49.678;8.388;2022-07-05T04:11:45;19.30;99.90
6865;DHT22;3471;49.678;8.388;2022-07-05T04:14:10;19.30;99.90
6865;DHT22;3471;49.678;8.388;2022-07-05T04:16:36;19.30;99.90
6865;DHT22;3471;49.678;8.388;2022-07-05T04:19:02;19.30;99.90
6865;DHT22;3471;49.678;8.388;2022-07-05T04:21:28;19.30;99.90
6865;DHT22;3471;49.678;8.388;2022-07-05T04:23:53;19.30;99.90
6865;DHT22;3471;49.678;8.388;2022-07-05T04:26:19;19.30;99.90
6865;DHT22;3471;49.678;8.388;2022-07-05T04:28:44;19.30;99.90
6865;DHT22;3471;49.678;8.388;2022-07-05T04:31:10;19.30;99.90
6865;DHT22;3471;49.678;8.388;2022-07-05T04:33:36;19.30;99.90
6865;DHT22;3471;49.678;8.388;2022-07-05T04:36:01;19.30;99.90
6865;DHT22;3471;49.678;8.388;2022-07-05T04:38:27;19.30;99.90
6865;DHT22;3471;49.678;8.388;2022-07-05T04:40:52;19.30;99.90
6865;DHT22;3471;49.678;8.388;2022-07-05T04:43:18;19.30;99.90
6865;DHT22;3471;49.678;8.388;2022-07-05T04:45:44;19.30;99.90
6865;DHT22;3471;49.678;8.388;2022-07-05T04:48:09;19.30;99.90
6865;DHT22;3471;49.678;8.388;2022-07-05T04:50:35;19.40;99.90
6865;DHT22;3471;49.678;8.388;2022-07-05T04:53:00;19.40;99.90
6865;DHT22;3471;49.678;8.388;2022-07-05T04:55:26;19.50;99.90
6865;DHT22;3471;49.678;8.388;2022-07-05T04:57:52;19.50;99.90
6865;DHT22;3471;49.678;8.388;2022-07-05T05:00:17;19.60;99.90
6865;DHT22;3471;49.678;8.388;2022-07-05T05:02:43;19.60;99.90
6865;DHT22;3471;49.678;8.388;2022-07-05T05:05:08;19.70;99.90
6865;DHT22;3471;49.678;8.388;2022-07-05T05:07:42;19.70;99.90
6865;DHT22;3471;49.678;8.388;2022-07-05T05:10:08;19.80;99.90
6865;DHT22;3471;49.678;8.388;2022-07-05T05:12:33;19.90;99.90
6865;DHT22;3471;49.678;8.388;2022-07-05T05:14:59;19.90;99.90
6865;DHT22;3471;49.678;8.388;2022-07-05T05:17:24;20.00;99.90
6865;DHT22;3471;49.678;8.388;2022-07-05T05:19:50;20.10;99.90
6865;DHT22;3471;49.678;8.388;2022-07-05T05:22:16;20.20;99.90
6865;DHT22;3471;49.678;8.388;2022-07-05T05:24:41;20.30;99.90
6865;DHT22;3471;49.678;8.388;2022-07-05T05:27:07;20.40;99.90
6865;DHT22;3471;49.678;8.388;2022-07-05T05:29:32;20.50;99.90
6865;DHT22;3471;49.678;8.388;2022-07-05T05:31:58;20.60;99.90
6865;DHT22;3471;49.678;8.388;2022-07-05T05:34:25;20.70;99.90
6865;DHT22;3471;49.678;8.388;2022-07-05T05:36:50;20.80;99.90
6865;DHT22;3471;49.678;8.388;2022-07-05T05:39:16;20.90;99.90
6865;DHT22;3471;49.678;8.388;2022-07-05T05:41:42;20.90;99.90
6865;DHT22;3471;49.678;8.388;2022-07-05T05:44:08;21.00;99.90
6865;DHT22;3471;49.678;8.388;2022-07-05T05:46:35;21.10;99.90
6865;DHT22;3471;49.678;8.388;2022-07-05T05:49:00;21.20;99.90
6865;DHT22;3471;49.678;8.388;2022-07-05T05:51:26;21.30;99.90
6865;DHT22;3471;49.678;8.388;2022-07-05T05:53:51;21.40;99.90
6865;DHT22;3471;49.678;8.388;2022-07-05T05:56:17;21.40;99.90
6865;DHT22;3471;49.678;8.388;2022-07-05T05:58:42;21.50;99.90
6865;DHT22;3471;49.678;8.388;2022-07-05T06:01:08;21.50;99.90
6865;DHT22;3471;49.678;8.388;2022-07-05T06:03:34;21.60;99.90
6865;DHT22;3471;49.678;8.388;2022-07-05T06:05:59;21.70;99.90
6865;DHT22;3471;49.678;8.388;2022-07-05T06:08:25;21.70;99.90
6865;DHT22;3471;49.678;8.388;2022-07-05T06:10:51;21.80;99.90
6865;DHT22;3471;49.678;8.388;2022-07-05T06:13:16;21.80;99.90
6865;DHT22;3471;49.678;8.388;2022-07-05T06:15:42;21.80;99.90
6865;DHT22;3471;49.678;8.388;2022-07-05T06:18:09;21.90;99.90
6865;DHT22;3471;49.678;8.388;2022-07-05T06:20:36;22.00;99.90
6865;DHT22;3471;49.678;8.388;2022-07-05T06:23:04;22.00;99.90
6865;DHT22;3471;49.678;8.388;2022-07-05T06:25:31;22.10;99.90
6865;DHT22;3471;49.678;8.388;2022-07-05T06:28:06;22.10;99.90
6865;DHT22;3471;49.678;8.388;2022-07-05T06:30:37;22.20;99.90
6865;DHT22;3471;49.678;8.388;2022-07-05T06:33:03;22.30;99.90
6865;DHT22;3471;49.678;8.388;2022-07-05T06:35:31;22.30;99.90
6865;DHT22;3471;49.678;8.388;2022-07-05T06:38:02;22.40;99.90
6865;DHT22;3471;49.678;8.388;2022-07-05T06:40:35;22.60;99.90
6865;DHT22;3471;49.678;8.388;2022-07-05T06:43:04;22.60;99.90
6865;DHT22;3471;49.678;8.388;2022-07-05T06:45:30;22.70;99.90
6865;DHT22;3471;49.678;8.388;2022-07-05T06:48:06;22.80;99.90
6865;DHT22;3471;49.678;8.388;2022-07-05T06:50:35;22.90;99.90
6865;DHT22;3471;49.678;8.388;2022-07-05T06:53:02;23.00;99.90
6865;DHT22;3471;49.678;8.388;2022-07-05T06:55:27;23.10;99.90
6865;DHT22;3471;49.678;8.388;2022-07-05T06:58:01;23.20;99.90
6865;DHT22;3471;49.678;8.388;2022-07-05T07:00:27;23.30;99.90
6865;DHT22;3471;49.678;8.388;2022-07-05T07:02:53;23.40;99.90
6865;DHT22;3471;49.678;8.388;2022-07-05T07:05:19;23.50;99.90
6865;DHT22;3471;49.678;8.388;2022-07-05T07:07:45;23.60;99.20
6865;DHT22;3471;49.678;8.388;2022-07-05T07:10:29;23.70;99.60
6865;DHT22;3471;49.678;8.388;2022-07-05T07:12:56;23.70;99.90
6865;DHT22;3471;49.678;8.388;2022-07-05T07:15:22;23.80;98.30
6865;DHT22;3471;49.678;8.388;2022-07-05T07:17:48;23.90;99.50
6865;DHT22;3471;49.678;8.388;2022-07-05T07:20:13;24.00;98.10
6865;DHT22;3471;49.678;8.388;2022-07-05T07:22:39;24.00;99.80
6865;DHT22;3471;49.678;8.388;2022-07-05T07:25:05;24.10;99.10
6865;DHT22;3471;49.678;8.388;2022-07-05T07:27:50;24.30;98.20
6865;DHT22;3471;49.678;8.388;2022-07-05T07:30:18;24.40;98.50
6865;DHT22;3471;49.678;8.388;2022-07-05T07:32:45;24.50;98.60
6865;DHT22;3471;49.678;8.388;2022-07-05T07:35:11;24.50;97.30
6865;DHT22;3471;49.678;8.388;2022-07-05T07:37:37;24.60;98.00
6865;DHT22;3471;49.678;8.388;2022-07-05T07:40:04;24.70;98.40
6865;DHT22;3471;49.678;8.388;2022-07-05T07:42:30;24.80;98.60
6865;DHT22;3471;49.678;8.388;2022-07-05T07:44:56;24.90;97.20
6865;DHT22;3471;49.678;8.388;2022-07-05T07:47:22;24.90;98.10
6865;DHT22;3471;49.678;8.388;2022-07-05T07:49:47;25.10;96.80
6865;DHT22;3471;49.678;8.388;2022-07-05T07:52:13;25.20;96.20
6865;DHT22;3471;49.678;8.388;2022-07-05T07:54:39;25.20;96.40
6865;DHT22;3471;49.678;8.388;2022-07-05T07:57:05;25.30;96.10
6865;DHT22;3471;49.678;8.388;2022-07-05T07:59:32;25.40;95.40
6865;DHT22;3471;49.678;8.388;2022-07-05T08:01:57;25.40;96.40
6865;DHT22;3471;49.678;8.388;2022-07-05T08:04:23;25.50;95.80
6865;DHT22;3471;49.678;8.388;2022-07-05T08:06:49;25.60;97.30
6865;DHT22;3471;49.678;8.388;2022-07-05T08:09:15;25.70;96.60
6865;DHT22;3471;49.678;8.388;2022-07-05T08:11:41;25.80;96.10
6865;DHT22;3471;49.678;8.388;2022-07-05T08:14:06;25.90;96.70
6865;DHT22;3471;49.678;8.388;2022-07-05T08:16:32;26.00;96.10
6865;DHT22;3471;49.678;8.388;2022-07-05T08:18:58;26.10;94.70
6865;DHT22;3471;49.678;8.388;2022-07-05T08:21:43;26.20;94.50
6865;DHT22;3471;49.678;8.388;2022-07-05T08:24:10;26.20;95.90
6865;DHT22;3471;49.678;8.388;2022-07-05T08:26:36;26.30;96.70
6865;DHT22;3471;49.678;8.388;2022-07-05T08:29:04;26.40;95.30
6865;DHT22;3471;49.678;8.388;2022-07-05T08:31:32;26.50;96.40
6865;DHT22;3471;49.678;8.388;2022-07-05T08:33:59;26.60;96.20
6865;DHT22;3471;49.678;8.388;2022-07-05T08:36:24;26.70;95.80
6865;DHT22;3471;49.678;8.388;2022-07-05T08:38:50;26.80;96.40
6865;DHT22;3471;49.678;8.388;2022-07-05T08:41:19;27.00;95.60
6865;DHT22;3471;49.678;8.388;2022-07-05T08:43:46;27.10;95.10
6865;DHT22;3471;49.678;8.388;2022-07-05T08:46:13;27.20;95.30
6865;DHT22;3471;49.678;8.388;2022-07-05T08:48:41;27.30;93.40
6865;DHT22;3471;49.678;8.388;2022-07-05T08:51:16;27.40;93.90
6865;DHT22;3471;49.678;8.388;2022-07-05T08:53:43;27.40;92.60
6865;DHT22;3471;49.678;8.388;2022-07-05T08:56:10;27.50;93.80
6865;DHT22;3471;49.678;8.388;2022-07-05T08:58:36;27.50;93.10
6865;DHT22;3471;49.678;8.388;2022-07-05T09:01:03;27.60;94.80
6865;DHT22;3471;49.678;8.388;2022-07-05T09:03:32;27.60;93.50
6865;DHT22;3471;49.678;8.388;2022-07-05T09:06:03;27.70;92.60
6865;DHT22;3471;49.678;8.388;2022-07-05T09:08:30;27.80;90.80
6865;DHT22;3471;49.678;8.388;2022-07-05T09:11:03;27.90;92.30
6865;DHT22;3471;49.678;8.388;2022-07-05T09:13:37;28.00;90.90
6865;DHT22;3471;49.678;8.388;2022-07-05T09:16:03;28.10;88.60
6865;DHT22;3471;49.678;8.388;2022-07-05T09:18:48;28.20;89.50
6865;DHT22;3471;49.678;8.388;2022-07-05T09:26:19;27.90;86.20
6865;DHT22;3471;49.678;8.388;2022-07-05T09:28:54;27.90;87.50
6865;DHT22;3471;49.678;8.388;2022-07-05T09:31:28;27.90;85.10
6865;DHT22;3471;49.678;8.388;2022-07-05T09:33:54;28.00;85.40
6865;DHT22;3471;49.678;8.388;2022-07-05T09:36:19;28.00;90.20
6865;DHT22;3471;49.678;8.388;2022-07-05T09:38:51;28.20;85.50
6865;DHT22;3471;49.678;8.388;2022-07-05T09:41:17;28.30;88.60
6865;DHT22;3471;49.678;8.388;2022-07-05T09:43:42;28.40;86.40
6865;DHT22;3471;49.678;8.388;2022-07-05T09:46:09;28.50;85.10
6865;DHT22;3471;49.678;8.388;2022-07-05T09:48:35;28.60;85.40
6865;DHT22;3471;49.678;8.388;2022-07-05T09:51:10;28.70;85.90
6865;DHT22;3471;49.678;8.388;2022-07-05T09:53:46;28.70;84.70
6865;DHT22;3471;49.678;8.388;2022-07-05T09:56:12;28.80;85.50
6865;DHT22;3471;49.678;8.388;2022-07-05T09:58:39;28.90;84.80
6865;DHT22;3471;49.678;8.388;2022-07-05T10:01:27;28.90;85.60
6865;DHT22;3471;49.678;8.388;2022-07-05T10:03:54;29.00;84.40
6865;DHT22;3471;49.678;8.388;2022-07-05T10:06:22;29.00;85.70
6865;DHT22;3471;49.678;8.388;2022-07-05T10:08:48;29.20;84.70
6865;DHT22;3471;49.678;8.388;2022-07-05T10:11:17;29.30;83.30
6865;DHT22;3471;49.678;8.388;2022-07-05T10:13:45;29.40;83.20
6865;DHT22;3471;49.678;8.388;2022-07-05T10:16:12;29.40;79.50
6865;DHT22;3471;49.678;8.388;2022-07-05T10:18:39;29.50;80.50
6865;DHT22;3471;49.678;8.388;2022-07-05T10:21:14;29.50;82.30
6865;DHT22;3471;49.678;8.388;2022-07-05T10:23:50;29.60;78.40
6865;DHT22;3471;49.678;8.388;2022-07-05T10:26:23;29.60;81.60
6865;DHT22;3471;49.678;8.388;2022-07-05T10:28:52;29.60;79.00
6865;DHT22;3471;49.678;8.388;2022-07-05T10:31:18;29.60;81.90
6865;DHT22;3471;49.678;8.388;2022-07-05T10:33:48;29.80;83.20
6865;DHT22;3471;49.678;8.388;2022-07-05T10:36:13;29.90;79.10
6865;DHT22;3471;49.678;8.388;2022-07-05T10:38:42;29.90;78.90
6865;DHT22;3471;49.678;8.388;2022-07-05T10:41:12;30.00;81.60
6865;DHT22;3471;49.678;8.388;2022-07-05T10:43:39;30.10;79.50
6865;DHT22;3471;49.678;8.388;2022-07-05T10:46:05;30.20;79.60
6865;DHT22;3471;49.678;8.388;2022-07-05T10:48:34;30.30;79.00
6865;DHT22;3471;49.678;8.388;2022-07-05T10:58:41;30.40;79.20
6865;DHT22;3471;49.678;8.388;2022-07-05T11:06:28;30.50;76.60
6865;DHT22;3471;49.678;8.388;2022-07-05T11:11:44;30.50;83.40
6865;DHT22;3471;49.678;8.388;2022-07-05T11:20:11;30.40;74.90
6865;DHT22;3471;49.678;8.388;2022-07-05T11:22:40;30.30;71.70
6865;DHT22;3471;49.678;8.388;2022-07-05T11:25:09;30.40;73.60
6865;DHT22;3471;49.678;8.388;2022-07-05T11:27:36;30.40;71.00
6865;DHT22;3471;49.678;8.388;2022-07-05T11:30:03;30.50;78.90
6865;DHT22;3471;49.678;8.388;2022-07-05T11:35:11;30.50;69.10
6865;DHT22;3471;49.678;8.388;2022-07-05T11:38:03;30.40;72.00
6865;DHT22;3471;49.678;8.388;2022-07-05T11:40:31;30.40;73.50
6865;DHT22;3471;49.678;8.388;2022-07-05T11:42:57;30.40;73.90
6865;DHT22;3471;49.678;8.388;2022-07-05T11:45:23;30.60;77.40
6865;DHT22;3471;49.678;8.388;2022-07-05T11:47:52;30.90;71.80
6865;DHT22;3471;49.678;8.388;2022-07-05T11:50:32;31.10;71.50
6865;DHT22;3471;49.678;8.388;2022-07-05T11:52:59;31.10;68.20
6865;DHT22;3471;49.678;8.388;2022-07-05T11:55:27;31.10;68.90
6865;DHT22;3471;49.678;8.388;2022-07-05T11:57:54;31.20;70.10
6865;DHT22;3471;49.678;8.388;2022-07-05T12:00:33;31.30;68.00
6865;DHT22;3471;49.678;8.388;2022-07-05T12:03:00;31.50;71.50
6865;DHT22;3471;49.678;8.388;2022-07-05T12:05:32;31.70;70.60
6865;DHT22;3471;49.678;8.388;2022-07-05T12:07:58;31.90;73.70
6865;DHT22;3471;49.678;8.388;2022-07-05T12:10:24;31.80;71.40
6865;DHT22;3471;49.678;8.388;2022-07-05T12:13:09;31.80;78.10
6865;DHT22;3471;49.678;8.388;2022-07-05T12:15:36;32.00;76.70
6865;DHT22;3471;49.678;8.388;2022-07-05T12:18:03;32.20;68.10
6865;DHT22;3471;49.678;8.388;2022-07-05T12:20:30;32.50;71.90
6865;DHT22;3471;49.678;8.388;2022-07-05T12:22:56;32.80;68.40
6865;DHT22;3471;49.678;8.388;2022-07-05T12:25:24;33.10;68.10
6865;DHT22;3471;49.678;8.388;2022-07-05T12:27:52;33.20;63.10
6865;DHT22;3471;49.678;8.388;2022-07-05T12:30:18;33.20;65.00
6865;DHT22;3471;49.678;8.388;2022-07-05T12:33:03;33.20;65.50
6865;DHT22;3471;49.678;8.388;2022-07-05T12:35:40;33.20;64.40
6865;DHT22;3471;49.678;8.388;2022-07-05T12:40:37;33.70;66.60
6865;DHT22;3471;49.678;8.388;2022-07-05T12:43:08;33.80;60.40
6865;DHT22;3471;49.678;8.388;2022-07-05T12:45:35;33.70;64.40
6865;DHT22;3471;49.678;8.388;2022-07-05T12:48:03;33.70;66.30
6865;DHT22;3471;49.678;8.388;2022-07-05T12:50:50;33.90;69.90
6865;DHT22;3471;49.678;8.388;2022-07-05T12:53:17;34.30;62.90
6865;DHT22;3471;49.678;8.388;2022-07-05T12:56:06;34.40;62.10
6865;DHT22;3471;49.678;8.388;2022-07-05T12:58:56;34.50;62.80
6865;DHT22;3471;49.678;8.388;2022-07-05T13:01:26;34.20;62.10
6865;DHT22;3471;49.678;8.388;2022-07-05T13:06:45;33.50;60.50
6865;DHT22;3471;49.678;8.388;2022-07-05T13:09:13;33.50;68.00
6865;DHT22;3471;49.678;8.388;2022-07-05T13:11:39;33.60;62.50
6865;DHT22;3471;49.678;8.388;2022-07-05T13:14:05;33.60;63.00
6865;DHT22;3471;49.678;8.388;2022-07-05T13:16:31;33.50;62.10
6865;DHT22;3471;49.678;8.388;2022-07-05T13:19:12;33.40;60.00
6865;DHT22;3471;49.678;8.388;2022-07-05T13:21:38;33.20;60.50
6865;DHT22;3471;49.678;8.388;2022-07-05T13:24:04;33.10;61.80
6865;DHT22;3471;49.678;8.388;2022-07-05T13:26:30;33.10;64.70
6865;DHT22;3471;49.678;8.388;2022-07-05T13:28:56;33.20;62.60
6865;DHT22;3471;49.678;8.388;2022-07-05T13:31:22;33.30;65.90
6865;DHT22;3471;49.678;8.388;2022-07-05T13:33:47;33.60;62.80
6865;DHT22;3471;49.678;8.388;2022-07-05T13:36:14;33.90;62.50
6865;DHT22;3471;49.678;8.388;2022-07-05T13:38:40;34.30;62.40
6865;DHT22;3471;49.678;8.388;2022-07-05T13:41:05;34.70;64.10
6865;DHT22;3471;49.678;8.388;2022-07-05T13:43:31;34.90;59.60
6865;DHT22;3471;49.678;8.388;2022-07-05T13:45:56;34.70;59.00
6865;DHT22;3471;49.678;8.388;2022-07-05T13:48:22;34.50;60.70
6865;DHT22;3471;49.678;8.388;2022-07-05T13:50:47;34.50;59.20
6865;DHT22;3471;49.678;8.388;2022-07-05T13:53:13;34.50;57.20
6865;DHT22;3471;49.678;8.388;2022-07-05T13:55:39;34.50;58.70
6865;DHT22;3471;49.678;8.388;2022-07-05T13:58:04;34.50;58.80
6865;DHT22;3471;49.678;8.388;2022-07-05T14:00:30;34.50;56.70
6865;DHT22;3471;49.678;8.388;2022-07-05T14:02:55;34.60;60.80
6865;DHT22;3471;49.678;8.388;2022-07-05T14:05:21;34.50;59.00
6865;DHT22;3471;49.678;8.388;2022-07-05T14:07:47;34.40;61.50
6865;DHT22;3471;49.678;8.388;2022-07-05T14:10:13;34.40;66.10
6865;DHT22;3471;49.678;8.388;2022-07-05T14:12:40;34.50;64.30
6865;DHT22;3471;49.678;8.388;2022-07-05T14:15:06;34.60;58.40
6865;DHT22;3471;49.678;8.388;2022-07-05T14:17:32;34.70;61.80
6865;DHT22;3471;49.678;8.388;2022-07-05T14:19:58;35.10;56.90
6865;DHT22;3471;49.678;8.388;2022-07-05T14:22:23;35.30;58.50
6865;DHT22;3471;49.678;8.388;2022-07-05T14:24:49;35.40;56.00
6865;DHT22;3471;49.678;8.388;2022-07-05T14:27:15;35.20;58.40
6865;DHT22;3471;49.678;8.388;2022-07-05T14:29:40;35.20;60.70
6865;DHT22;3471;49.678;8.388;2022-07-05T14:32:06;35.40;60.30
6865;DHT22;3471;49.678;8.388;2022-07-05T14:34:32;35.90;59.50
6865;DHT22;3471;49.678;8.388;2022-07-05T14:36:57;36.30;56.30
6865;DHT22;3471;49.678;8.388;2022-07-05T14:39:25;36.60;54.10
6865;DHT22;3471;49.678;8.388;2022-07-05T14:41:50;36.70;58.20
6865;DHT22;3471;49.678;8.388;2022-07-05T14:44:16;36.80;54.20
6865;DHT22;3471;49.678;8.388;2022-07-05T14:46:41;36.60;54.30
6865;DHT22;3471;49.678;8.388;2022-07-05T14:49:07;36.20;52.90
6865;DHT22;3471;49.678;8.388;2022-07-05T14:51:33;35.60;55.70
6865;DHT22;3471;49.678;8.388;2022-07-05T14:53:58;35.00;55.40
6865;DHT22;3471;49.678;8.388;2022-07-05T14:56:24;34.40;55.40
6865;DHT22;3471;49.678;8.388;2022-07-05T14:58:49;34.00;58.30
6865;DHT22;3471;49.678;8.388;2022-07-05T15:01:16;33.70;56.40
6865;DHT22;3471;49.678;8.388;2022-07-05T15:03:43;33.50;58.10
6865;DHT22;3471;49.678;8.388;2022-07-05T15:06:09;33.20;57.70
6865;DHT22;3471;49.678;8.388;2022-07-05T15:08:36;33.00;57.50
6865;DHT22;3471;49.678;8.388;2022-07-05T15:11:02;32.70;56.70
6865;DHT22;3471;49.678;8.388;2022-07-05T15:13:28;32.50;62.50
6865;DHT22;3471;49.678;8.388;2022-07-05T15:15:54;32.70;59.70
6865;DHT22;3471;49.678;8.388;2022-07-05T15:18:22;33.10;59.20
6865;DHT22;3471;49.678;8.388;2022-07-05T15:20:48;33.50;59.00
6865;DHT22;3471;49.678;8.388;2022-07-05T15:23:14;33.70;59.10
6865;DHT22;3471;49.678;8.388;2022-07-05T15:25:39;34.00;57.90
6865;DHT22;3471;49.678;8.388;2022-07-05T15:28:05;34.30;58.90
6865;DHT22;3471;49.678;8.388;2022-07-05T15:30:35;34.60;59.90
6865;DHT22;3471;49.678;8.388;2022-07-05T15:33:02;35.00;56.30
6865;DHT22;3471;49.678;8.388;2022-07-05T15:35:28;35.10;55.40
6865;DHT22;3471;49.678;8.388;2022-07-05T15:37:53;35.00;55.30
6865;DHT22;3471;49.678;8.388;2022-07-05T15:40:19;34.60;55.00
6865;DHT22;3471;49.678;8.388;2022-07-05T15:42:45;34.20;55.80
6865;DHT22;3471;49.678;8.388;2022-07-05T15:45:10;33.70;55.90
6865;DHT22;3471;49.678;8.388;2022-07-05T15:47:36;33.60;57.30
6865;DHT22;3471;49.678;8.388;2022-07-05T15:50:05;33.50;56.70
6865;DHT22;3471;49.678;8.388;2022-07-05T15:52:31;33.40;58.50
6865;DHT22;3471;49.678;8.388;2022-07-05T15:54:57;33.30;57.30
6865;DHT22;3471;49.678;8.388;2022-07-05T15:57:23;33.20;56.90
6865;DHT22;3471;49.678;8.388;2022-07-05T15:59:51;33.30;57.80
6865;DHT22;3471;49.678;8.388;2022-07-05T16:02:17;33.40;59.10
6865;DHT22;3471;49.678;8.388;2022-07-05T16:04:42;33.60;58.10
6865;DHT22;3471;49.678;8.388;2022-07-05T16:07:08;33.50;56.60
6865;DHT22;3471;49.678;8.388;2022-07-05T16:09:34;33.40;56.80
6865;DHT22;3471;49.678;8.388;2022-07-05T16:11:59;33.10;57.30
6865;DHT22;3471;49.678;8.388;2022-07-05T16:14:25;32.90;61.40
6865;DHT22;3471;49.678;8.388;2022-07-05T16:16:50;32.70;59.60
6865;DHT22;3471;49.678;8.388;2022-07-05T16:19:16;32.50;63.60
6865;DHT22;3471;49.678;8.388;2022-07-05T16:21:42;32.30;62.50
6865;DHT22;3471;49.678;8.388;2022-07-05T16:24:08;32.10;63.70
6865;DHT22;3471;49.678;8.388;2022-07-05T16:26:35;31.90;60.40
6865;DHT22;3471;49.678;8.388;2022-07-05T16:29:02;31.90;61.80
6865;DHT22;3471;49.678;8.388;2022-07-05T16:31:28;31.80;60.10
6865;DHT22;3471;49.678;8.388;2022-07-05T16:33:53;31.70;60.10
6865;DHT22;3471;49.678;8.388;2022-07-05T16:36:23;31.70;59.20